ΕΜΥ, Εθνική Μετεωρολογική Υπηρεσία - Δελτία Καιρού, Προγνώσεις

ΑΕΡΟΝΑΥΤΙΛΙΑ

GREEK AIRPORTS CODES

LGSA 292020Z 27009KT 9999 FEW020 21/18 Q1014=

EUROPEAN AIRPORTS CODES

LFPO 292030Z 19003KT 9999 SCT046 BKN130 BKN230 16/15 Q1018NOSIG=